^^
Saratoga-Weather Station Historical Data
Daily Summary for January 11, 2022 Units:  Both    English   Metric
Daily Weekly Monthly Yearly Custom
  High: Low: Average:
Temperature: 32.9 °F /  0.5 °C 28.6 °F /  -1.9 °C 30.9 °F /  -0.6 °C
Dew Point: 31.6 °F /  -0.2 °C 27.5 °F /  -2.5 °C 29.8 °F /  -1.2 °C
Humidity: 97% 95% 96%
Wind Speed: 5mph /  8km/h - 0.5mph /  0.8km/h
Wind Gust: 5mph /  8km/h - -
Wind- - SSE
Pressure: 30.6 in /  1035.9 hPa 30.4 in /  1030.1 hPa -
Precipitation: 0 in /  0.0 mm    
Historical Graphs
 
 
Tabular Data for January 11, 2022
Time Temperature Dew Point Pressure Wind Wind Speed Wind Gust Humidity Rainfall Rate (Hourly) solar
00:03 32.5 °F /  0.3 °C 31.5 °F /  -0.3 °C 30.4in /  1030.1hPa Calm   2mph /  3.2km/h 96% 0in /  0.0mm 0 W/m2
00:08 32.5 °F /  0.3 °C 31.5 °F /  -0.3 °C 30.4in /  1030.1hPa Calm   1mph /  1.6km/h 96% 0in /  0.0mm 0 W/m2
00:13 32.5 °F /  0.3 °C 31.5 °F /  -0.3 °C 30.4in /  1030.1hPa ENE 0.9mph /  1.4km/h 1mph /  1.6km/h 96% 0in /  0.0mm 0 W/m2
00:18 32.5 °F /  0.3 °C 31.5 °F /  -0.3 °C 30.4in /  1030.1hPa ENE 0.9mph /  1.4km/h 2mph /  3.2km/h 96% 0in /  0.0mm 0 W/m2
00:23 32.5 °F /  0.3 °C 31.5 °F /  -0.3 °C 30.4in /  1030.1hPa ENE 0.9mph /  1.4km/h 2mph /  3.2km/h 96% 0in /  0.0mm 0 W/m2
00:28 32.5 °F /  0.3 °C 31.5 °F /  -0.3 °C 30.4in /  1030.1hPa Calm     96% 0in /  0.0mm 0 W/m2
00:33 32.5 °F /  0.3 °C 31.5 °F /  -0.3 °C 30.4in /  1030.1hPa Calm   1mph /  1.6km/h 96% 0in /  0.0mm 0 W/m2
00:38 32.5 °F /  0.3 °C 31.5 °F /  -0.3 °C 30.4in /  1030.1hPa Calm   1mph /  1.6km/h 96% 0in /  0.0mm 0 W/m2
00:43 32.5 °F /  0.3 °C 31.5 °F /  -0.3 °C 30.4in /  1030.1hPa Calm     96% 0in /  0.0mm 0 W/m2
00:49 32.5 °F /  0.3 °C 31.5 °F /  -0.3 °C 30.4in /  1030.1hPa North 0.9mph /  1.4km/h 2mph /  3.2km/h 96% 0in /  0.0mm 0 W/m2
00:54 32.5 °F /  0.3 °C 31.5 °F /  -0.3 °C 30.4in /  1030.1hPa NE 0.9mph /  1.4km/h 1mph /  1.6km/h 96% 0in /  0.0mm 0 W/m2
00:59 32.4 °F /  0.2 °C 31.3 °F /  -0.4 °C 30.4in /  1030.1hPa Calm   2mph /  3.2km/h 96% 0in /  0.0mm 0 W/m2
01:04 32.4 °F /  0.2 °C 31.3 °F /  -0.4 °C 30.4in /  1030.1hPa Calm   1mph /  1.6km/h 96% 0in /  0.0mm 0 W/m2
01:09 32.4 °F /  0.2 °C 31.3 °F /  -0.4 °C 30.4in /  1030.1hPa NE 0.9mph /  1.4km/h 2mph /  3.2km/h 96% 0in /  0.0mm 0 W/m2
01:14 32.4 °F /  0.2 °C 31.3 °F /  -0.4 °C 30.4in /  1030.1hPa Calm     96% 0in /  0.0mm 0 W/m2
01:19 32.4 °F /  0.2 °C 31.3 °F /  -0.4 °C 30.4in /  1030.1hPa NNE 0.9mph /  1.4km/h 2mph /  3.2km/h 96% 0in /  0.0mm 0 W/m2
01:24 32.2 °F /  0.1 °C 31.1 °F /  -0.5 °C 30.4in /  1030.1hPa Calm   2mph /  3.2km/h 96% 0in /  0.0mm 0 W/m2
01:29 32.2 °F /  0.1 °C 31.1 °F /  -0.5 °C 30.4in /  1030.1hPa NE 0.9mph /  1.4km/h 1mph /  1.6km/h 96% 0in /  0.0mm 0 W/m2
01:34 32.2 °F /  0.1 °C 31.1 °F /  -0.5 °C 30.4in /  1030.1hPa Calm     96% 0in /  0.0mm 0 W/m2
01:39 32.2 °F /  0.1 °C 31.1 °F /  -0.5 °C 30.4in /  1030.1hPa ENE 0.9mph /  1.4km/h 2mph /  3.2km/h 96% 0in /  0.0mm 0 W/m2
01:44 32 °F /  0 °C 30.9 °F /  -0.6 °C 30.4in /  1030.1hPa Calm     96% 0in /  0.0mm 0 W/m2
01:49 32 °F /  0 °C 30.9 °F /  -0.6 °C 30.4in /  1030.1hPa NNW 0.9mph /  1.4km/h 3mph /  4.8km/h 96% 0in /  0.0mm 0 W/m2
01:54 31.8 °F /  -0.1 °C 30.7 °F /  -0.7 °C 30.4in /  1030.1hPa Calm   2mph /  3.2km/h 96% 0in /  0.0mm 0 W/m2
01:59 31.8 °F /  -0.1 °C 30.7 °F /  -0.7 °C 30.4in /  1030.1hPa North 0.9mph /  1.4km/h 1mph /  1.6km/h 96% 0in /  0.0mm 0 W/m2
02:04 31.8 °F /  -0.1 °C 30.7 °F /  -0.7 °C 30.4in /  1030.1hPa Calm   1mph /  1.6km/h 96% 0in /  0.0mm 0 W/m2
02:09 31.8 °F /  -0.1 °C 30.7 °F /  -0.7 °C 30.4in /  1030.1hPa Calm   2mph /  3.2km/h 96% 0in /  0.0mm 0 W/m2
02:14 32 °F /  0 °C 30.9 °F /  -0.6 °C 30.4in /  1030.5hPa NE 0.9mph /  1.4km/h 2mph /  3.2km/h 96% 0in /  0.0mm 0 W/m2
02:19 32 °F /  0 °C 30.9 °F /  -0.6 °C 30.4in /  1030.5hPa Calm   2mph /  3.2km/h 96% 0in /  0.0mm 0 W/m2
02:24 32 °F /  0 °C 30.9 °F /  -0.6 °C 30.4in /  1030.5hPa ESE 2.9mph /  4.7km/h 3mph /  4.8km/h 96% 0in /  0.0mm 0 W/m2
02:29 31.8 °F /  -0.1 °C 30.7 °F /  -0.7 °C 30.4in /  1030.5hPa ESE 0.9mph /  1.4km/h 1mph /  1.6km/h 96% 0in /  0.0mm 0 W/m2
02:34 31.8 °F /  -0.1 °C 30.7 °F /  -0.7 °C 30.4in /  1030.5hPa NE 0.9mph /  1.4km/h 3mph /  4.8km/h 96% 0in /  0.0mm 0 W/m2
02:39 31.8 °F /  -0.1 °C 30.7 °F /  -0.7 °C 30.4in /  1030.5hPa Calm   1mph /  1.6km/h 96% 0in /  0.0mm 0 W/m2
02:44 31.8 °F /  -0.1 °C 30.7 °F /  -0.7 °C 30.4in /  1030.5hPa Calm   2mph /  3.2km/h 96% 0in /  0.0mm 0 W/m2
02:49 31.8 °F /  -0.1 °C 30.7 °F /  -0.7 °C 30.4in /  1030.5hPa Calm   3mph /  4.8km/h 96% 0in /  0.0mm 0 W/m2
02:54 31.8 °F /  -0.1 °C 30.7 °F /  -0.7 °C 30.4in /  1030.5hPa Calm   1mph /  1.6km/h 96% 0in /  0.0mm 0 W/m2
02:59 31.8 °F /  -0.1 °C 30.7 °F /  -0.7 °C 30.4in /  1030.8hPa NE 0.9mph /  1.4km/h 1mph /  1.6km/h 96% 0in /  0.0mm 0 W/m2
03:04 31.6 °F /  -0.2 °C 30.6 °F /  -0.8 °C 30.4in /  1030.8hPa NE 4.9mph /  7.9km/h 5mph /  8km/h 96% 0in /  0.0mm 0 W/m2
03:09 31.6 °F /  -0.2 °C 30.6 °F /  -0.8 °C 30.4in /  1030.8hPa Calm   3mph /  4.8km/h 96% 0in /  0.0mm 0 W/m2
03:14 31.5 °F /  -0.3 °C 30.4 °F /  -0.9 °C 30.4in /  1030.8hPa NE 5mph /  8km/h 5mph /  8km/h 96% 0in /  0.0mm 0 W/m2
03:19 31.5 °F /  -0.3 °C 30.4 °F /  -0.9 °C 30.4in /  1030.8hPa Calm   2mph /  3.2km/h 96% 0in /  0.0mm 0 W/m2
03:24 31.5 °F /  -0.3 °C 30.4 °F /  -0.9 °C 30.4in /  1030.8hPa Calm   1mph /  1.6km/h 96% 0in /  0.0mm 0 W/m2
03:29 31.5 °F /  -0.3 °C 30.4 °F /  -0.9 °C 30.4in /  1030.8hPa ENE 0.9mph /  1.4km/h 2mph /  3.2km/h 96% 0in /  0.0mm 0 W/m2
03:34 31.5 °F /  -0.3 °C 30.4 °F /  -0.9 °C 30.4in /  1030.8hPa Calm   1mph /  1.6km/h 96% 0in /  0.0mm 0 W/m2
03:39 31.5 °F /  -0.3 °C 30.4 °F /  -0.9 °C 30.5in /  1031.2hPa Calm   4mph /  6.4km/h 96% 0in /  0.0mm 0 W/m2
03:44 31.3 °F /  -0.4 °C 30.2 °F /  -1 °C 30.5in /  1031.2hPa Calm   2mph /  3.2km/h 96% 0in /  0.0mm 0 W/m2
03:49 31.3 °F /  -0.4 °C 30.2 °F /  -1 °C 30.5in /  1031.2hPa Calm     96% 0in /  0.0mm 0 W/m2
03:54 31.3 °F /  -0.4 °C 30.2 °F /  -1 °C 30.5in /  1031.2hPa Calm   1mph /  1.6km/h 96% 0in /  0.0mm 0 W/m2
03:59 31.3 °F /  -0.4 °C 30.2 °F /  -1 °C 30.5in /  1031.2hPa Calm   1mph /  1.6km/h 96% 0in /  0.0mm 0 W/m2
04:04 31.3 °F /  -0.4 °C 30.2 °F /  -1 °C 30.5in /  1031.2hPa Calm     96% 0in /  0.0mm 0 W/m2
04:09 31.3 °F /  -0.4 °C 30.2 °F /  -1 °C 30.5in /  1031.2hPa Calm     96% 0in /  0.0mm 0 W/m2
04:14 31.3 °F /  -0.4 °C 30.2 °F /  -1 °C 30.5in /  1031.2hPa NE 0.9mph /  1.4km/h 3mph /  4.8km/h 96% 0in /  0.0mm 0 W/m2
04:19 31.3 °F /  -0.4 °C 30.2 °F /  -1 °C 30.5in /  1031.2hPa Calm   1mph /  1.6km/h 96% 0in /  0.0mm 0 W/m2
04:24 31.3 °F /  -0.4 °C 30.2 °F /  -1 °C 30.5in /  1031.2hPa Calm     96% 0in /  0.0mm 0 W/m2
04:29 31.3 °F /  -0.4 °C 30.2 °F /  -1 °C 30.5in /  1031.2hPa Calm   2mph /  3.2km/h 96% 0in /  0.0mm 0 W/m2
04:34 31.3 °F /  -0.4 °C 30.2 °F /  -1 °C 30.5in /  1031.2hPa Calm   3mph /  4.8km/h 96% 0in /  0.0mm 0 W/m2
04:39 31.3 °F /  -0.4 °C 30.2 °F /  -1 °C 30.5in /  1031.2hPa Calm   1mph /  1.6km/h 96% 0in /  0.0mm 0 W/m2
04:44 31.3 °F /  -0.4 °C 30.2 °F /  -1 °C 30.5in /  1031.5hPa NE 0.9mph /  1.4km/h 3mph /  4.8km/h 96% 0in /  0.0mm 0 W/m2
04:49 31.1 °F /  -0.5 °C 30 °F /  -1.1 °C 30.5in /  1031.5hPa Calm     96% 0in /  0.0mm 0 W/m2
04:54 30.9 °F /  -0.6 °C 29.8 °F /  -1.2 °C 30.5in /  1031.5hPa Calm   1mph /  1.6km/h 96% 0in /  0.0mm 0 W/m2
04:59 31.1 °F /  -0.5 °C 30 °F /  -1.1 °C 30.5in /  1031.5hPa Calm   1mph /  1.6km/h 96% 0in /  0.0mm 0 W/m2
05:04 30.9 °F /  -0.6 °C 29.8 °F /  -1.2 °C 30.5in /  1031.2hPa Calm   1mph /  1.6km/h 96% 0in /  0.0mm 0 W/m2
05:09 30.9 °F /  -0.6 °C 29.8 °F /  -1.2 °C 30.5in /  1031.5hPa East 2mph /  3.2km/h 2mph /  3.2km/h 96% 0in /  0.0mm 0 W/m2
05:14 30.7 °F /  -0.7 °C 29.7 °F /  -1.3 °C 30.5in /  1031.2hPa ESE 4mph /  6.4km/h 4mph /  6.4km/h 96% 0in /  0.0mm 0 W/m2
05:19 30.7 °F /  -0.7 °C 29.7 °F /  -1.3 °C 30.5in /  1031.2hPa East 0.9mph /  1.4km/h 2mph /  3.2km/h 96% 0in /  0.0mm 0 W/m2
05:24 30.7 °F /  -0.7 °C 29.7 °F /  -1.3 °C 30.5in /  1031.2hPa Calm   3mph /  4.8km/h 96% 0in /  0.0mm 0 W/m2
05:29 30.6 °F /  -0.8 °C 29.5 °F /  -1.4 °C 30.5in /  1031.2hPa Calm   1mph /  1.6km/h 96% 0in /  0.0mm 0 W/m2
05:34 30.6 °F /  -0.8 °C 29.5 °F /  -1.4 °C 30.5in /  1031.2hPa East 0.9mph /  1.4km/h 3mph /  4.8km/h 96% 0in /  0.0mm 0 W/m2
05:39 30.6 °F /  -0.8 °C 29.5 °F /  -1.4 °C 30.5in /  1031.2hPa East 0.9mph /  1.4km/h 1mph /  1.6km/h 96% 0in /  0.0mm 0 W/m2
05:44 30.6 °F /  -0.8 °C 29.5 °F /  -1.4 °C 30.5in /  1031.2hPa NE 0.9mph /  1.4km/h 3mph /  4.8km/h 96% 0in /  0.0mm 0 W/m2
05:49 30.6 °F /  -0.8 °C 29.5 °F /  -1.4 °C 30.5in /  1031.5hPa NNE 2mph /  3.2km/h 2mph /  3.2km/h 96% 0in /  0.0mm 0 W/m2
05:54 30.6 °F /  -0.8 °C 29.5 °F /  -1.4 °C 30.5in /  1031.5hPa NW 0.9mph /  1.4km/h 3mph /  4.8km/h 96% 0in /  0.0mm 0 W/m2
05:59 30.4 °F /  -0.9 °C 29.3 °F /  -1.5 °C 30.5in /  1031.5hPa NNE 0.9mph /  1.4km/h 1mph /  1.6km/h 96% 0in /  0.0mm 0 W/m2
06:04 30.4 °F /  -0.9 °C 29.3 °F /  -1.5 °C 30.5in /  1031.5hPa Calm   1mph /  1.6km/h 96% 0in /  0.0mm 0 W/m2
06:09 30.4 °F /  -0.9 °C 29.3 °F /  -1.5 °C 30.5in /  1031.5hPa Calm   2mph /  3.2km/h 96% 0in /  0.0mm 0 W/m2
06:14 30.2 °F /  -1 °C 29.1 °F /  -1.6 °C 30.5in /  1031.5hPa East 0.9mph /  1.4km/h 2mph /  3.2km/h 96% 0in /  0.0mm 0 W/m2
06:19 30.4 °F /  -0.9 °C 29.3 °F /  -1.5 °C 30.5in /  1031.8hPa Calm   2mph /  3.2km/h 96% 0in /  0.0mm 0 W/m2
06:24 30.2 °F /  -1 °C 29.1 °F /  -1.6 °C 30.5in /  1031.8hPa Calm     96% 0in /  0.0mm 0 W/m2
06:29 30.4 °F /  -0.9 °C 29.3 °F /  -1.5 °C 30.5in /  1031.8hPa ENE 0.9mph /  1.4km/h 2mph /  3.2km/h 96% 0in /  0.0mm 0 W/m2
06:34 30.4 °F /  -0.9 °C 29.3 °F /  -1.5 °C 30.5in /  1031.8hPa Calm     96% 0in /  0.0mm 0 W/m2
06:39 30.4 °F /  -0.9 °C 29.3 °F /  -1.5 °C 30.5in /  1031.8hPa Calm   2mph /  3.2km/h 96% 0in /  0.0mm 0 W/m2
06:44 30.4 °F /  -0.9 °C 29.3 °F /  -1.5 °C 30.5in /  1031.8hPa ENE 0.9mph /  1.4km/h 3mph /  4.8km/h 96% 0in /  0.0mm 0 W/m2
06:49 30 °F /  -1.1 °C 28.9 °F /  -1.7 °C 30.5in /  1031.8hPa Calm     96% 0in /  0.0mm 0 W/m2
06:54 30 °F /  -1.1 °C 28.9 °F /  -1.7 °C 30.5in /  1031.8hPa ENE 0.9mph /  1.4km/h 2mph /  3.2km/h 96% 0in /  0.0mm 0 W/m2
06:59 29.8 °F /  -1.2 °C 28.8 °F /  -1.8 °C 30.5in /  1031.8hPa Calm     96% 0in /  0.0mm 0 W/m2
07:04 29.8 °F /  -1.2 °C 28.8 °F /  -1.8 °C 30.5in /  1031.8hPa Calm   1mph /  1.6km/h 96% 0in /  0.0mm 0 W/m2
07:09 29.8 °F /  -1.2 °C 28.8 °F /  -1.8 °C 30.5in /  1031.8hPa NNE 2mph /  3.2km/h 2mph /  3.2km/h 96% 0in /  0.0mm 0 W/m2
07:14 29.8 °F /  -1.2 °C 28.8 °F /  -1.8 °C 30.5in /  1031.8hPa Calm   1mph /  1.6km/h 96% 0in /  0.0mm 0 W/m2
07:19 30 °F /  -1.1 °C 28.9 °F /  -1.7 °C 30.5in /  1032.2hPa NE 2mph /  3.2km/h 2mph /  3.2km/h 96% 0in /  0.0mm 0 W/m2
07:24 30 °F /  -1.1 °C 28.9 °F /  -1.7 °C 30.5in /  1032.2hPa ENE 2mph /  3.2km/h 2mph /  3.2km/h 96% 0in /  0.0mm 0 W/m2
07:29 29.8 °F /  -1.2 °C 28.8 °F /  -1.8 °C 30.5in /  1032.2hPa Calm   2mph /  3.2km/h 96% 0in /  0.0mm 0 W/m2
07:34 29.8 °F /  -1.2 °C 28.8 °F /  -1.8 °C 30.5in /  1032.2hPa Calm   3mph /  4.8km/h 96% 0in /  0.0mm 0 W/m2
07:39 29.8 °F /  -1.2 °C 28.8 °F /  -1.8 °C 30.5in /  1032.2hPa East 0.9mph /  1.4km/h 1mph /  1.6km/h 96% 0in /  0.0mm 0 W/m2
07:44 29.8 °F /  -1.2 °C 28.8 °F /  -1.8 °C 30.5in /  1032.2hPa ENE 0.9mph /  1.4km/h 3mph /  4.8km/h 96% 0in /  0.0mm 0 W/m2
07:49 29.8 °F /  -1.2 °C 28.8 °F /  -1.8 °C 30.5in /  1032.2hPa Calm     96% 0in /  0.0mm 0 W/m2
07:54 29.7 °F /  -1.3 °C 28.6 °F /  -1.9 °C 30.5in /  1032.5hPa Calm   3mph /  4.8km/h 96% 0in /  0.0mm 0 W/m2
07:59 29.7 °F /  -1.3 °C 28.6 °F /  -1.9 °C 30.5in /  1032.2hPa Calm   2mph /  3.2km/h 96% 0in /  0.0mm 0 W/m2
08:04 29.7 °F /  -1.3 °C 28.6 °F /  -1.9 °C 30.5in /  1032.5hPa Calm   2mph /  3.2km/h 96% 0in /  0.0mm 0 W/m2
08:09 29.7 °F /  -1.3 °C 28.6 °F /  -1.9 °C 30.5in /  1032.5hPa Calm   1mph /  1.6km/h 96% 0in /  0.0mm 0 W/m2
08:15 29.7 °F /  -1.3 °C 28.6 °F /  -1.9 °C 30.5in /  1032.5hPa ENE 0.9mph /  1.4km/h 2mph /  3.2km/h 96% 0in /  0.0mm 0 W/m2
08:20 29.7 °F /  -1.3 °C 28.6 °F /  -1.9 °C 30.5in /  1032.5hPa ENE 0.9mph /  1.4km/h 2mph /  3.2km/h 96% 0in /  0.0mm 0 W/m2
08:25 29.7 °F /  -1.3 °C 28.6 °F /  -1.9 °C 30.5in /  1032.8hPa NE 0.9mph /  1.4km/h 1mph /  1.6km/h 96% 0in /  0.0mm 0 W/m2
08:30 29.5 °F /  -1.4 °C 28.4 °F /  -2 °C 30.5in /  1032.8hPa NE 2mph /  3.2km/h 2mph /  3.2km/h 96% 0in /  0.0mm 0 W/m2
08:35 29.5 °F /  -1.4 °C 28.4 °F /  -2 °C 30.5in /  1032.8hPa NE 0.9mph /  1.4km/h 2mph /  3.2km/h 96% 0in /  0.0mm 0 W/m2
08:40 29.5 °F /  -1.4 °C 28.4 °F /  -2 °C 30.5in /  1032.8hPa Calm   1mph /  1.6km/h 96% 0in /  0.0mm 0 W/m2
08:45 29.5 °F /  -1.4 °C 28.4 °F /  -2 °C 30.5in /  1032.8hPa Calm   2mph /  3.2km/h 96% 0in /  0.0mm 5 W/m2
08:50 29.5 °F /  -1.4 °C 28.4 °F /  -2 °C 30.5in /  1032.8hPa NE 0.9mph /  1.4km/h 2mph /  3.2km/h 96% 0in /  0.0mm 7 W/m2
08:55 29.5 °F /  -1.4 °C 28.4 °F /  -2 °C 30.5in /  1033.2hPa Calm   2mph /  3.2km/h 96% 0in /  0.0mm 7 W/m2
09:00 29.5 °F /  -1.4 °C 28.4 °F /  -2 °C 30.5in /  1033.2hPa Calm   2mph /  3.2km/h 96% 0in /  0.0mm 7 W/m2
09:05 29.5 °F /  -1.4 °C 28.4 °F /  -2 °C 30.5in /  1033.2hPa NW 0.9mph /  1.4km/h 1mph /  1.6km/h 96% 0in /  0.0mm 9 W/m2
09:10 29.3 °F /  -1.5 °C 28.2 °F /  -2.1 °C 30.5in /  1033.2hPa Calm   1mph /  1.6km/h 96% 0in /  0.0mm 12 W/m2
09:15 29.3 °F /  -1.5 °C 28.2 °F /  -2.1 °C 30.5in /  1033.2hPa NW 0.9mph /  1.4km/h 1mph /  1.6km/h 96% 0in /  0.0mm 16 W/m2
09:20 29.1 °F /  -1.6 °C 28 °F /  -2.2 °C 30.5in /  1033.2hPa Calm     96% 0in /  0.0mm 19 W/m2
09:30 29.3 °F /  -1.5 °C 28.6 °F /  -1.9 °C 30.5in /  1033.2hPa NNW 0.9mph /  1.4km/h 2mph /  3.2km/h 97% 0in /  0.0mm 16 W/m2
09:35 29.3 °F /  -1.5 °C 28.6 °F /  -1.9 °C 30.5in /  1033.2hPa Calm   1mph /  1.6km/h 97% 0in /  0.0mm 21 W/m2
09:40 29.3 °F /  -1.5 °C 28.2 °F /  -2.1 °C 30.5in /  1033.2hPa Calm     96% 0in /  0.0mm 25 W/m2
09:45 29.3 °F /  -1.5 °C 28.2 °F /  -2.1 °C 30.5in /  1033.2hPa Calm     96% 0in /  0.0mm 23 W/m2
09:50 29.5 °F /  -1.4 °C 28.4 °F /  -2 °C 30.5in /  1033.5hPa North 0.9mph /  1.4km/h 1mph /  1.6km/h 96% 0in /  0.0mm 33 W/m2
09:55 29.5 °F /  -1.4 °C 28.4 °F /  -2 °C 30.5in /  1033.5hPa Calm   3mph /  4.8km/h 96% 0in /  0.0mm 28 W/m2
10:00 29.5 °F /  -1.4 °C 28.4 °F /  -2 °C 30.5in /  1033.5hPa Calm     96% 0in /  0.0mm 30 W/m2
10:05 29.5 °F /  -1.4 °C 28.4 °F /  -2 °C 30.5in /  1033.5hPa Calm   2mph /  3.2km/h 96% 0in /  0.0mm 32 W/m2
10:10 29.5 °F /  -1.4 °C 28.4 °F /  -2 °C 30.5in /  1033.5hPa Calm   2mph /  3.2km/h 96% 0in /  0.0mm 44 W/m2
10:15 29.5 °F /  -1.4 °C 28.4 °F /  -2 °C 30.5in /  1033.5hPa Calm   4mph /  6.4km/h 96% 0in /  0.0mm 47 W/m2
10:20 29.5 °F /  -1.4 °C 28.4 °F /  -2 °C 30.5in /  1033.5hPa WNW 0.9mph /  1.4km/h 3mph /  4.8km/h 96% 0in /  0.0mm 35 W/m2
10:25 29.5 °F /  -1.4 °C 28.4 °F /  -2 °C 30.5in /  1033.5hPa Calm   2mph /  3.2km/h 96% 0in /  0.0mm 33 W/m2
10:30 29.5 °F /  -1.4 °C 28.4 °F /  -2 °C 30.5in /  1033.5hPa Calm   3mph /  4.8km/h 96% 0in /  0.0mm 46 W/m2
10:35 29.5 °F /  -1.4 °C 28.4 °F /  -2 °C 30.5in /  1033.5hPa North 0.9mph /  1.4km/h 1mph /  1.6km/h 96% 0in /  0.0mm 53 W/m2
10:40 29.5 °F /  -1.4 °C 28.4 °F /  -2 °C 30.5in /  1033.5hPa NE 0.9mph /  1.4km/h 2mph /  3.2km/h 96% 0in /  0.0mm 58 W/m2
10:45 29.7 °F /  -1.3 °C 28.6 °F /  -1.9 °C 30.5in /  1033.5hPa NE 0.9mph /  1.4km/h 4mph /  6.4km/h 96% 0in /  0.0mm 58 W/m2
10:50 29.7 °F /  -1.3 °C 28.9 °F /  -1.7 °C 30.5in /  1033.5hPa ENE 0.9mph /  1.4km/h 2mph /  3.2km/h 97% 0in /  0.0mm 67 W/m2
10:55 29.7 °F /  -1.3 °C 28.9 °F /  -1.7 °C 30.5in /  1033.5hPa East 0.9mph /  1.4km/h 4mph /  6.4km/h 97% 0in /  0.0mm 74 W/m2
11:00 29.8 °F /  -1.2 °C 29.1 °F /  -1.6 °C 30.5in /  1033.5hPa NE 0.9mph /  1.4km/h 2mph /  3.2km/h 97% 0in /  0.0mm 60 W/m2
11:05 29.8 °F /  -1.2 °C 29.1 °F /  -1.6 °C 30.5in /  1033.5hPa ESE 0.9mph /  1.4km/h 3mph /  4.8km/h 97% 0in /  0.0mm 47 W/m2
11:10 29.7 °F /  -1.3 °C 28.9 °F /  -1.7 °C 30.5in /  1033.5hPa ENE 2mph /  3.2km/h 2mph /  3.2km/h 97% 0in /  0.0mm 69 W/m2
11:15 29.8 °F /  -1.2 °C 29.1 °F /  -1.6 °C 30.5in /  1033.5hPa Calm   4mph /  6.4km/h 97% 0in /  0.0mm 70 W/m2
11:20 29.7 °F /  -1.3 °C 28.9 °F /  -1.7 °C 30.5in /  1033.5hPa North 2mph /  3.2km/h 3mph /  4.8km/h 97% 0in /  0.0mm 69 W/m2
11:25 29.8 °F /  -1.2 °C 29.1 °F /  -1.6 °C 30.5in /  1033.5hPa North 0.9mph /  1.4km/h 4mph /  6.4km/h 97% 0in /  0.0mm 67 W/m2
11:30 29.8 °F /  -1.2 °C 29.1 °F /  -1.6 °C 30.5in /  1033.9hPa ENE 2mph /  3.2km/h 2mph /  3.2km/h 97% 0in /  0.0mm 69 W/m2
11:35 29.8 °F /  -1.2 °C 29.1 °F /  -1.6 °C 30.5in /  1033.9hPa NW 0.9mph /  1.4km/h 2mph /  3.2km/h 97% 0in /  0.0mm 67 W/m2
11:40 29.8 °F /  -1.2 °C 29.1 °F /  -1.6 °C 30.5in /  1033.5hPa NE 2mph /  3.2km/h 2mph /  3.2km/h 97% 0in /  0.0mm 77 W/m2
11:45 29.8 °F /  -1.2 °C 29.1 °F /  -1.6 °C 30.5in /  1033.5hPa Calm   2mph /  3.2km/h 97% 0in /  0.0mm 81 W/m2
11:51 30 °F /  -1.1 °C 29.3 °F /  -1.5 °C 30.5in /  1033.5hPa NE 0.9mph /  1.4km/h 2mph /  3.2km/h 97% 0in /  0.0mm 83 W/m2
11:56 30.2 °F /  -1 °C 29.5 °F /  -1.4 °C 30.5in /  1033.5hPa Calm   1mph /  1.6km/h 97% 0in /  0.0mm 107 W/m2
12:01 30.2 °F /  -1 °C 29.5 °F /  -1.4 °C 30.5in /  1033.5hPa Calm   1mph /  1.6km/h 97% 0in /  0.0mm 107 W/m2
12:06 30.4 °F /  -0.9 °C 29.7 °F /  -1.3 °C 30.5in /  1033.5hPa Calm   2mph /  3.2km/h 97% 0in /  0.0mm 97 W/m2
12:11 30.6 °F /  -0.8 °C 29.8 °F /  -1.2 °C 30.5in /  1033.5hPa Calm   2mph /  3.2km/h 97% 0in /  0.0mm 95 W/m2
12:16 30.6 °F /  -0.8 °C 29.8 °F /  -1.2 °C 30.5in /  1033.5hPa Calm   2mph /  3.2km/h 97% 0in /  0.0mm 111 W/m2
12:21 30.6 °F /  -0.8 °C 29.8 °F /  -1.2 °C 30.5in /  1033.5hPa Calm   2mph /  3.2km/h 97% 0in /  0.0mm 116 W/m2
12:26 30.7 °F /  -0.7 °C 30 °F /  -1.1 °C 30.5in /  1033.5hPa Calm     97% 0in /  0.0mm 123 W/m2
12:31 30.9 °F /  -0.6 °C 30.2 °F /  -1 °C 30.5in /  1033.5hPa NNE 0.9mph /  1.4km/h 2mph /  3.2km/h 97% 0in /  0.0mm 95 W/m2
12:36 30.9 °F /  -0.6 °C 30.2 °F /  -1 °C 30.5in /  1033.5hPa Calm   1mph /  1.6km/h 97% 0in /  0.0mm 91 W/m2
12:41 30.9 °F /  -0.6 °C 30.2 °F /  -1 °C 30.5in /  1033.2hPa Calm   1mph /  1.6km/h 97% 0in /  0.0mm 148 W/m2
12:46 31.3 °F /  -0.4 °C 30.6 °F /  -0.8 °C 30.5in /  1033.2hPa WNW 2.9mph /  4.7km/h 3mph /  4.8km/h 97% 0in /  0.0mm 100 W/m2
12:51 31.1 °F /  -0.5 °C 30.4 °F /  -0.9 °C 30.5in /  1033.2hPa NW 0.9mph /  1.4km/h 2mph /  3.2km/h 97% 0in /  0.0mm 79 W/m2
12:56 31.1 °F /  -0.5 °C 30.4 °F /  -0.9 °C 30.5in /  1033.2hPa NW 2mph /  3.2km/h 2mph /  3.2km/h 97% 0in /  0.0mm 86 W/m2
13:01 31.3 °F /  -0.4 °C 30.6 °F /  -0.8 °C 30.5in /  1033.2hPa Calm     97% 0in /  0.0mm 91 W/m2
13:06 31.3 °F /  -0.4 °C 30.6 °F /  -0.8 °C 30.5in /  1033.2hPa NW 2mph /  3.2km/h 2mph /  3.2km/h 97% 0in /  0.0mm 105 W/m2
13:11 31.3 °F /  -0.4 °C 30.6 °F /  -0.8 °C 30.5in /  1033.2hPa North 0.9mph /  1.4km/h 3mph /  4.8km/h 97% 0in /  0.0mm 128 W/m2
13:16 31.3 °F /  -0.4 °C 30.6 °F /  -0.8 °C 30.5in /  1033.2hPa Calm   1mph /  1.6km/h 97% 0in /  0.0mm 95 W/m2
13:21 31.5 °F /  -0.3 °C 30.7 °F /  -0.7 °C 30.5in /  1033.2hPa NNW 0.9mph /  1.4km/h 3mph /  4.8km/h 97% 0in /  0.0mm 146 W/m2
13:26 31.6 °F /  -0.2 °C 30.9 °F /  -0.6 °C 30.5in /  1033.2hPa NE 0.9mph /  1.4km/h 2mph /  3.2km/h 97% 0in /  0.0mm 155 W/m2
13:31 31.8 °F /  -0.1 °C 30.7 °F /  -0.7 °C 30.5in /  1033.2hPa NE 0.9mph /  1.4km/h 2mph /  3.2km/h 96% 0in /  0.0mm 125 W/m2
13:36 31.8 °F /  -0.1 °C 31.1 °F /  -0.5 °C 30.5in /  1033.2hPa Calm     97% 0in /  0.0mm 113 W/m2
13:41 32 °F /  0 °C 31.3 °F /  -0.4 °C 30.5in /  1033.2hPa Calm     97% 0in /  0.0mm 111 W/m2
13:46 31.8 °F /  -0.1 °C 31.1 °F /  -0.5 °C 30.5in /  1033.2hPa Calm   2mph /  3.2km/h 97% 0in /  0.0mm 98 W/m2
13:51 32 °F /  0 °C 30.9 °F /  -0.6 °C 30.5in /  1033.2hPa Calm   2mph /  3.2km/h 96% 0in /  0.0mm 72 W/m2
13:56 32 °F /  0 °C 30.9 °F /  -0.6 °C 30.5in /  1033.2hPa Calm   2mph /  3.2km/h 96% 0in /  0.0mm 67 W/m2
14:01 32.2 °F /  0.1 °C 31.1 °F /  -0.5 °C 30.5in /  1033.2hPa Calm     96% 0in /  0.0mm 125 W/m2
14:06 32.2 °F /  0.1 °C 31.1 °F /  -0.5 °C 30.5in /  1033.2hPa Calm   2mph /  3.2km/h 96% 0in /  0.0mm 113 W/m2
14:11 32.4 °F /  0.2 °C 31.3 °F /  -0.4 °C 30.5in /  1033.2hPa Calm   2mph /  3.2km/h 96% 0in /  0.0mm 118 W/m2
14:16 32.4 °F /  0.2 °C 31.3 °F /  -0.4 °C 30.5in /  1033.2hPa Calm     96% 0in /  0.0mm 90 W/m2
14:21 32.5 °F /  0.3 °C 31.5 °F /  -0.3 °C 30.5in /  1033.2hPa NE 0.9mph /  1.4km/h 2mph /  3.2km/h 96% 0in /  0.0mm 62 W/m2
14:26 32.5 °F /  0.3 °C 31.5 °F /  -0.3 °C 30.5in /  1032.8hPa Calm   1mph /  1.6km/h 96% 0in /  0.0mm 77 W/m2
14:31 32.5 °F /  0.3 °C 31.5 °F /  -0.3 °C 30.5in /  1032.8hPa Calm     96% 0in /  0.0mm 86 W/m2
14:36 32.7 °F /  0.4 °C 31.6 °F /  -0.2 °C 30.5in /  1032.8hPa Calm     96% 0in /  0.0mm 70 W/m2
14:41 32.7 °F /  0.4 °C 31.6 °F /  -0.2 °C 30.5in /  1032.8hPa Calm   2mph /  3.2km/h 96% 0in /  0.0mm 60 W/m2
14:46 32.7 °F /  0.4 °C 31.6 °F /  -0.2 °C 30.5in /  1032.8hPa Calm   2mph /  3.2km/h 96% 0in /  0.0mm 49 W/m2
14:51 32.9 °F /  0.5 °C 31.6 °F /  -0.2 °C 30.5in /  1032.8hPa Calm     95% 0in /  0.0mm 39 W/m2
14:56 32.9 °F /  0.5 °C 31.6 °F /  -0.2 °C 30.5in /  1032.8hPa Calm   2mph /  3.2km/h 95% 0in /  0.0mm 35 W/m2
15:01 32.7 °F /  0.4 °C 31.5 °F /  -0.3 °C 30.5in /  1032.8hPa Calm     95% 0in /  0.0mm 32 W/m2
15:06 32.7 °F /  0.4 °C 31.5 °F /  -0.3 °C 30.5in /  1032.8hPa Calm     95% 0in /  0.0mm 30 W/m2
15:11 32.7 °F /  0.4 °C 31.5 °F /  -0.3 °C 30.5in /  1032.8hPa Calm     95% 0in /  0.0mm 30 W/m2
15:16 32.5 °F /  0.3 °C 31.3 °F /  -0.4 °C 30.5in /  1033.2hPa Calm     95% 0in /  0.0mm 28 W/m2
15:21 32.5 °F /  0.3 °C 31.3 °F /  -0.4 °C 30.5in /  1033.2hPa Calm     95% 0in /  0.0mm 28 W/m2
15:26 32.5 °F /  0.3 °C 31.3 °F /  -0.4 °C 30.5in /  1032.8hPa Calm     95% 0in /  0.0mm 26 W/m2
15:31 32.5 °F /  0.3 °C 31.3 °F /  -0.4 °C 30.5in /  1032.8hPa Calm     95% 0in /  0.0mm 25 W/m2
15:36 32.5 °F /  0.3 °C 31.3 °F /  -0.4 °C 30.5in /  1032.8hPa Calm     95% 0in /  0.0mm 25 W/m2
15:41 32.4 °F /  0.2 °C 31.1 °F /  -0.5 °C 30.5in /  1032.8hPa Calm     95% 0in /  0.0mm 25 W/m2
15:46 32.4 °F /  0.2 °C 31.1 °F /  -0.5 °C 30.5in /  1032.8hPa Calm     95% 0in /  0.0mm 23 W/m2
15:51 32.4 °F /  0.2 °C 31.1 °F /  -0.5 °C 30.5in /  1032.8hPa Calm   2mph /  3.2km/h 95% 0in /  0.0mm 23 W/m2
15:56 32.4 °F /  0.2 °C 31.1 °F /  -0.5 °C 30.5in /  1033.2hPa Calm     95% 0in /  0.0mm 23 W/m2
16:01 32.4 °F /  0.2 °C 31.1 °F /  -0.5 °C 30.5in /  1033.2hPa Calm     95% 0in /  0.0mm 23 W/m2
16:06 32.4 °F /  0.2 °C 31.1 °F /  -0.5 °C 30.5in /  1033.2hPa Calm     95% 0in /  0.0mm 21 W/m2
16:11 32.4 °F /  0.2 °C 31.1 °F /  -0.5 °C 30.5in /  1033.2hPa Calm   1mph /  1.6km/h 95% 0in /  0.0mm 19 W/m2
16:16 32.4 °F /  0.2 °C 31.1 °F /  -0.5 °C 30.5in /  1033.2hPa Calm   2mph /  3.2km/h 95% 0in /  0.0mm 18 W/m2
16:21 32.4 °F /  0.2 °C 31.1 °F /  -0.5 °C 30.5in /  1033.2hPa East 0.9mph /  1.4km/h 1mph /  1.6km/h 95% 0in /  0.0mm 16 W/m2
16:26 32.4 °F /  0.2 °C 31.1 °F /  -0.5 °C 30.5in /  1033.2hPa Calm     95% 0in /  0.0mm 14 W/m2
16:31 32.4 °F /  0.2 °C 31.1 °F /  -0.5 °C 30.5in /  1033.2hPa Calm     95% 0in /  0.0mm 16 W/m2
16:36 32.2 °F /  0.1 °C 30.9 °F /  -0.6 °C 30.5in /  1033.2hPa Calm     95% 0in /  0.0mm 16 W/m2
16:41 32.2 °F /  0.1 °C 30.9 °F /  -0.6 °C 30.5in /  1033.2hPa Calm     95% 0in /  0.0mm 11 W/m2
16:46 32.2 °F /  0.1 °C 30.9 °F /  -0.6 °C 30.5in /  1033.5hPa Calm     95% 0in /  0.0mm 9 W/m2
16:51 32 °F /  0 °C 30.7 °F /  -0.7 °C 30.5in /  1033.5hPa Calm     95% 0in /  0.0mm 5 W/m2
16:56 32 °F /  0 °C 30.7 °F /  -0.7 °C 30.5in /  1033.5hPa East 0.9mph /  1.4km/h 3mph /  4.8km/h 95% 0in /  0.0mm 5 W/m2
17:01 32.2 °F /  0.1 °C 30.9 °F /  -0.6 °C 30.5in /  1033.5hPa Calm   1mph /  1.6km/h 95% 0in /  0.0mm 0 W/m2
17:06 32.2 °F /  0.1 °C 30.9 °F /  -0.6 °C 30.5in /  1033.5hPa Calm   3mph /  4.8km/h 95% 0in /  0.0mm 0 W/m2
17:12 32.2 °F /  0.1 °C 30.9 °F /  -0.6 °C 30.5in /  1033.5hPa Calm     95% 0in /  0.0mm 0 W/m2
17:17 32.2 °F /  0.1 °C 30.9 °F /  -0.6 °C 30.5in /  1033.5hPa Calm   1mph /  1.6km/h 95% 0in /  0.0mm 0 W/m2
17:22 32.2 °F /  0.1 °C 31.1 °F /  -0.5 °C 30.5in /  1033.5hPa Calm     96% 0in /  0.0mm 0 W/m2
17:27 32.2 °F /  0.1 °C 31.1 °F /  -0.5 °C 30.5in /  1033.5hPa Calm     96% 0in /  0.0mm 0 W/m2
17:32 32.2 °F /  0.1 °C 31.1 °F /  -0.5 °C 30.5in /  1033.9hPa Calm     96% 0in /  0.0mm 0 W/m2
17:37 32.2 °F /  0.1 °C 31.1 °F /  -0.5 °C 30.5in /  1033.9hPa Calm     96% 0in /  0.0mm 0 W/m2
17:42 32.2 °F /  0.1 °C 31.1 °F /  -0.5 °C 30.5in /  1033.9hPa Calm     96% 0in /  0.0mm 0 W/m2
17:47 32.2 °F /  0.1 °C 31.1 °F /  -0.5 °C 30.5in /  1033.9hPa Calm     96% 0in /  0.0mm 0 W/m2
17:52 32.2 °F /  0.1 °C 31.1 °F /  -0.5 °C 30.5in /  1033.9hPa East 0.9mph /  1.4km/h 2mph /  3.2km/h 96% 0in /  0.0mm 0 W/m2
17:57 32.2 °F /  0.1 °C 31.1 °F /  -0.5 °C 30.5in /  1033.5hPa Calm     96% 0in /  0.0mm 0 W/m2
18:02 32.2 °F /  0.1 °C 31.1 °F /  -0.5 °C 30.5in /  1033.9hPa Calm   2mph /  3.2km/h 96% 0in /  0.0mm 0 W/m2
18:07 32 °F /  0 °C 30.9 °F /  -0.6 °C 30.5in /  1033.9hPa NE 2mph /  3.2km/h 2mph /  3.2km/h 96% 0in /  0.0mm 0 W/m2
18:12 31.8 °F /  -0.1 °C 30.7 °F /  -0.7 °C 30.5in /  1033.9hPa ENE 2mph /  3.2km/h 2mph /  3.2km/h 96% 0in /  0.0mm 0 W/m2
18:17 31.8 °F /  -0.1 °C 30.6 °F /  -0.8 °C 30.5in /  1033.9hPa East 0.9mph /  1.4km/h 2mph /  3.2km/h 95% 0in /  0.0mm 0 W/m2
18:22 31.6 °F /  -0.2 °C 30.4 °F /  -0.9 °C 30.5in /  1033.9hPa ENE 2mph /  3.2km/h 3mph /  4.8km/h 95% 0in /  0.0mm 0 W/m2
18:27 31.6 °F /  -0.2 °C 30.6 °F /  -0.8 °C 30.5in /  1033.9hPa East 2mph /  3.2km/h 2mph /  3.2km/h 96% 0in /  0.0mm 0 W/m2
18:32 31.5 °F /  -0.3 °C 30.4 °F /  -0.9 °C 30.5in /  1034.2hPa ESE 0.9mph /  1.4km/h 3mph /  4.8km/h 96% 0in /  0.0mm 0 W/m2
18:37 31.5 °F /  -0.3 °C 30.4 °F /  -0.9 °C 30.5in /  1034.2hPa Calm     96% 0in /  0.0mm 0 W/m2
18:42 31.3 °F /  -0.4 °C 30.2 °F /  -1 °C 30.5in /  1033.9hPa Calm     96% 0in /  0.0mm 0 W/m2
18:47 31.3 °F /  -0.4 °C 30.2 °F /  -1 °C 30.5in /  1033.9hPa Calm     96% 0in /  0.0mm 0 W/m2
18:52 31.3 °F /  -0.4 °C 30.2 °F /  -1 °C 30.5in /  1033.9hPa ENE 2mph /  3.2km/h 3mph /  4.8km/h 96% 0in /  0.0mm 0 W/m2
18:57 31.3 °F /  -0.4 °C 30.2 °F /  -1 °C 30.5in /  1034.2hPa Calm     96% 0in /  0.0mm 0 W/m2
19:02 31.3 °F /  -0.4 °C 30.2 °F /  -1 °C 30.5in /  1034.2hPa Calm   3mph /  4.8km/h 96% 0in /  0.0mm 0 W/m2
19:07 31.1 °F /  -0.5 °C 30 °F /  -1.1 °C 30.5in /  1034.2hPa NE 2mph /  3.2km/h 4mph /  6.4km/h 96% 0in /  0.0mm 0 W/m2
19:12 30.9 °F /  -0.6 °C 29.8 °F /  -1.2 °C 30.5in /  1034.2hPa ENE 0.9mph /  1.4km/h 3mph /  4.8km/h 96% 0in /  0.0mm 0 W/m2
19:17 30.7 °F /  -0.7 °C 29.7 °F /  -1.3 °C 30.5in /  1034.2hPa ENE 2mph /  3.2km/h 2mph /  3.2km/h 96% 0in /  0.0mm 0 W/m2
19:22 30.7 °F /  -0.7 °C 29.7 °F /  -1.3 °C 30.5in /  1034.2hPa ESE 0.9mph /  1.4km/h 2mph /  3.2km/h 96% 0in /  0.0mm 0 W/m2
19:27 30.6 °F /  -0.8 °C 29.5 °F /  -1.4 °C 30.6in /  1034.5hPa Calm     96% 0in /  0.0mm 0 W/m2
19:32 30.6 °F /  -0.8 °C 29.5 °F /  -1.4 °C 30.6in /  1034.5hPa Calm   1mph /  1.6km/h 96% 0in /  0.0mm 0 W/m2
19:37 30.6 °F /  -0.8 °C 29.5 °F /  -1.4 °C 30.6in /  1034.5hPa Calm   1mph /  1.6km/h 96% 0in /  0.0mm 0 W/m2
19:42 30.6 °F /  -0.8 °C 29.5 °F /  -1.4 °C 30.6in /  1034.5hPa Calm   1mph /  1.6km/h 96% 0in /  0.0mm 0 W/m2
19:47 30.6 °F /  -0.8 °C 29.5 °F /  -1.4 °C 30.6in /  1034.5hPa Calm     96% 0in /  0.0mm 0 W/m2
19:52 30.4 °F /  -0.9 °C 29.3 °F /  -1.5 °C 30.6in /  1034.5hPa North 2mph /  3.2km/h 2mph /  3.2km/h 96% 0in /  0.0mm 0 W/m2
19:57 30.4 °F /  -0.9 °C 29.3 °F /  -1.5 °C 30.6in /  1034.5hPa ENE 0.9mph /  1.4km/h 2mph /  3.2km/h 96% 0in /  0.0mm 0 W/m2
20:02 30.4 °F /  -0.9 °C 29.3 °F /  -1.5 °C 30.6in /  1034.5hPa Calm   2mph /  3.2km/h 96% 0in /  0.0mm 0 W/m2
20:07 30.4 °F /  -0.9 °C 29.3 °F /  -1.5 °C 30.6in /  1034.5hPa North 0.9mph /  1.4km/h 4mph /  6.4km/h 96% 0in /  0.0mm 0 W/m2
20:12 30.2 °F /  -1 °C 29.1 °F /  -1.6 °C 30.6in /  1034.5hPa Calm     96% 0in /  0.0mm 0 W/m2
20:17 30.2 °F /  -1 °C 29.1 °F /  -1.6 °C 30.6in /  1034.5hPa NNE 0.9mph /  1.4km/h 4mph /  6.4km/h 96% 0in /  0.0mm 0 W/m2
20:22 30 °F /  -1.1 °C 28.9 °F /  -1.7 °C 30.6in /  1034.5hPa Calm   1mph /  1.6km/h 96% 0in /  0.0mm 0 W/m2
20:27 30 °F /  -1.1 °C 28.9 °F /  -1.7 °C 30.6in /  1034.5hPa North 0.9mph /  1.4km/h 2mph /  3.2km/h 96% 0in /  0.0mm 0 W/m2
20:32 29.8 °F /  -1.2 °C 28.8 °F /  -1.8 °C 30.6in /  1034.5hPa NNW 0.9mph /  1.4km/h 1mph /  1.6km/h 96% 0in /  0.0mm 0 W/m2
20:37 29.8 °F /  -1.2 °C 28.8 °F /  -1.8 °C 30.6in /  1034.5hPa North 2mph /  3.2km/h 2mph /  3.2km/h 96% 0in /  0.0mm 0 W/m2
20:42 29.8 °F /  -1.2 °C 28.8 °F /  -1.8 °C 30.6in /  1034.5hPa Calm   2mph /  3.2km/h 96% 0in /  0.0mm 0 W/m2
20:47 29.8 °F /  -1.2 °C 28.8 °F /  -1.8 °C 30.6in /  1034.9hPa NW 2mph /  3.2km/h 2mph /  3.2km/h 96% 0in /  0.0mm 0 W/m2
20:52 29.8 °F /  -1.2 °C 28.8 °F /  -1.8 °C 30.6in /  1034.9hPa NW 0.9mph /  1.4km/h 2mph /  3.2km/h 96% 0in /  0.0mm 0 W/m2
20:57 29.8 °F /  -1.2 °C 28.8 °F /  -1.8 °C 30.6in /  1034.9hPa NW 0.9mph /  1.4km/h 3mph /  4.8km/h 96% 0in /  0.0mm 0 W/m2
21:02 29.8 °F /  -1.2 °C 28.8 °F /  -1.8 °C 30.6in /  1034.9hPa NW 0.9mph /  1.4km/h 2mph /  3.2km/h 96% 0in /  0.0mm 0 W/m2
21:07 29.7 °F /  -1.3 °C 28.6 °F /  -1.9 °C 30.6in /  1034.9hPa Calm   2mph /  3.2km/h 96% 0in /  0.0mm 0 W/m2
21:12 29.7 °F /  -1.3 °C 28.6 °F /  -1.9 °C 30.6in /  1034.9hPa Calm   1mph /  1.6km/h 96% 0in /  0.0mm 0 W/m2
21:17 29.7 °F /  -1.3 °C 28.6 °F /  -1.9 °C 30.6in /  1034.9hPa Calm   2mph /  3.2km/h 96% 0in /  0.0mm 0 W/m2
21:22 29.5 °F /  -1.4 °C 28.4 °F /  -2 °C 30.6in /  1034.9hPa North 0.9mph /  1.4km/h 1mph /  1.6km/h 96% 0in /  0.0mm 0 W/m2
21:27 29.5 °F /  -1.4 °C 28.4 °F /  -2 °C 30.6in /  1034.9hPa North 0.9mph /  1.4km/h 1mph /  1.6km/h 96% 0in /  0.0mm 0 W/m2
21:32 29.5 °F /  -1.4 °C 28.4 °F /  -2 °C 30.6in /  1034.9hPa North 2mph /  3.2km/h 2mph /  3.2km/h 96% 0in /  0.0mm 0 W/m2
21:37 29.5 °F /  -1.4 °C 28.4 °F /  -2 °C 30.6in /  1035.2hPa Calm   1mph /  1.6km/h 96% 0in /  0.0mm 0 W/m2
21:42 29.5 °F /  -1.4 °C 28.4 °F /  -2 °C 30.6in /  1035.2hPa North 0.9mph /  1.4km/h 2mph /  3.2km/h 96% 0in /  0.0mm 0 W/m2
21:47 29.7 °F /  -1.3 °C 28.6 °F /  -1.9 °C 30.6in /  1035.2hPa NW 0.9mph /  1.4km/h 2mph /  3.2km/h 96% 0in /  0.0mm 0 W/m2
21:52 29.7 °F /  -1.3 °C 28.6 °F /  -1.9 °C 30.6in /  1035.2hPa WNW 2mph /  3.2km/h 2mph /  3.2km/h 96% 0in /  0.0mm 0 W/m2
21:57 29.7 °F /  -1.3 °C 28.6 °F /  -1.9 °C 30.6in /  1035.2hPa Calm   1mph /  1.6km/h 96% 0in /  0.0mm 0 W/m2
22:02 29.7 °F /  -1.3 °C 28.6 °F /  -1.9 °C 30.6in /  1035.2hPa Calm     96% 0in /  0.0mm 0 W/m2
22:07 29.7 °F /  -1.3 °C 28.6 °F /  -1.9 °C 30.6in /  1035.2hPa Calm   1mph /  1.6km/h 96% 0in /  0.0mm 0 W/m2
22:12 29.5 °F /  -1.4 °C 28.4 °F /  -2 °C 30.6in /  1035.2hPa NE 0.9mph /  1.4km/h 2mph /  3.2km/h 96% 0in /  0.0mm 0 W/m2
22:17 29.5 °F /  -1.4 °C 28.4 °F /  -2 °C 30.6in /  1035.6hPa Calm     96% 0in /  0.0mm 0 W/m2
22:22 29.5 °F /  -1.4 °C 28.4 °F /  -2 °C 30.6in /  1035.6hPa Calm     96% 0in /  0.0mm 0 W/m2
22:27 29.5 °F /  -1.4 °C 28.4 °F /  -2 °C 30.6in /  1035.6hPa Calm   1mph /  1.6km/h 96% 0in /  0.0mm 0 W/m2
22:32 29.3 °F /  -1.5 °C 28.2 °F /  -2.1 °C 30.6in /  1035.6hPa NNW 0.9mph /  1.4km/h 2mph /  3.2km/h 96% 0in /  0.0mm 0 W/m2
22:37 29.3 °F /  -1.5 °C 28.2 °F /  -2.1 °C 30.6in /  1035.6hPa Calm   2mph /  3.2km/h 96% 0in /  0.0mm 0 W/m2
22:42 29.1 °F /  -1.6 °C 28 °F /  -2.2 °C 30.6in /  1035.6hPa Calm   1mph /  1.6km/h 96% 0in /  0.0mm 0 W/m2
22:47 29.1 °F /  -1.6 °C 28 °F /  -2.2 °C 30.6in /  1035.6hPa East 0.9mph /  1.4km/h 1mph /  1.6km/h 96% 0in /  0.0mm 0 W/m2
22:52 29.3 °F /  -1.5 °C 28.2 °F /  -2.1 °C 30.6in /  1035.6hPa Calm   1mph /  1.6km/h 96% 0in /  0.0mm 0 W/m2
22:57 29.1 °F /  -1.6 °C 28 °F /  -2.2 °C 30.6in /  1035.6hPa ENE 0.9mph /  1.4km/h 1mph /  1.6km/h 96% 0in /  0.0mm 0 W/m2
23:02 29.1 °F /  -1.6 °C 28 °F /  -2.2 °C 30.6in /  1035.6hPa ENE 0.9mph /  1.4km/h 1mph /  1.6km/h 96% 0in /  0.0mm 0 W/m2
23:07 29.1 °F /  -1.6 °C 28 °F /  -2.2 °C 30.6in /  1035.6hPa North 0.9mph /  1.4km/h 2mph /  3.2km/h 96% 0in /  0.0mm 0 W/m2
23:12 29.1 °F /  -1.6 °C 28 °F /  -2.2 °C 30.6in /  1035.9hPa North 0.9mph /  1.4km/h 2mph /  3.2km/h 96% 0in /  0.0mm 0 W/m2
23:18 29.1 °F /  -1.6 °C 28.4 °F /  -2 °C 30.6in /  1035.6hPa Calm   3mph /  4.8km/h 97% 0in /  0.0mm 0 W/m2
23:23 28.9 °F /  -1.7 °C 27.9 °F /  -2.3 °C 30.6in /  1035.9hPa NW 2mph /  3.2km/h 2mph /  3.2km/h 96% 0in /  0.0mm 0 W/m2
23:28 28.8 °F /  -1.8 °C 27.7 °F /  -2.4 °C 30.6in /  1035.9hPa WNW 0.9mph /  1.4km/h 3mph /  4.8km/h 96% 0in /  0.0mm 0 W/m2
23:33 28.8 °F /  -1.8 °C 27.7 °F /  -2.4 °C 30.6in /  1035.9hPa West 0.9mph /  1.4km/h 2mph /  3.2km/h 96% 0in /  0.0mm 0 W/m2
23:38 28.6 °F /  -1.9 °C 27.5 °F /  -2.5 °C 30.6in /  1035.9hPa West 2mph /  3.2km/h 2mph /  3.2km/h 96% 0in /  0.0mm 0 W/m2
23:43 28.6 °F /  -1.9 °C 27.5 °F /  -2.5 °C 30.6in /  1035.9hPa WNW 0.9mph /  1.4km/h 1mph /  1.6km/h 96% 0in /  0.0mm 0 W/m2
23:48 28.6 °F /  -1.9 °C 27.5 °F /  -2.5 °C 30.6in /  1035.9hPa Calm   1mph /  1.6km/h 96% 0in /  0.0mm 0 W/m2
23:53 28.6 °F /  -1.9 °C 27.9 °F /  -2.3 °C 30.6in /  1035.9hPa NW 2mph /  3.2km/h 3mph /  4.8km/h 97% 0in /  0.0mm 0 W/m2
23:58 28.6 °F /  -1.9 °C 27.5 °F /  -2.5 °C 30.6in /  1035.9hPa Calm     96% 0in /  0.0mm 0 W/m2
Juneau County Weather
Compliments of Weather Underground - 4 mb